Aviation Digital Data Service (ADDS)

Output produced by METARs form (0209 UTC 11 December 2016)
found at http://www.aviationweather.gov/adds/metars/
 
KAOO 110153Z AUTO 19005KT 10SM CLR M07/M10 A3041 RMK AO2 SLP323 T10721100
KAOO 110053Z AUTO 25006KT 10SM CLR M07/M11 A3042 RMK AO2 SLP324 T10671106
KAOO 102353Z AUTO 24004KT 10SM CLR M06/M10 A3042 RMK AO2 SLP324 60000 T10561100 11022 21067 51008
KAOO 102253Z AUTO 24004KT 10SM CLR M06/M11 A3041 RMK AO2 SLP323 T10561111
KAOO 102153Z AUTO 25005KT 10SM CLR M05/M10 A3040 RMK AO2 SLP318 T10501100
KAOO 102053Z AUTO 27010KT 10SM SCT034 BKN042 M03/M09 A3039 RMK AO2 SLP313 60000 T10331094 53007
KAOO 101953Z AUTO 28010G19KT 10SM BKN035 OVC044 M02/M10 A3038 RMK AO2 SNB1858E14 SLP307 P0000 T10221100
KAOO 101853Z AUTO 27010KT 10SM OVC035 M03/M09 A3037 RMK AO2 SLP305 T10281094
KAOO 101753Z AUTO 27012KT 10SM FEW023 BKN041 OVC048 M04/M09 A3037 RMK AO2 SNB08E18 SLP306 P0000 60000 T10391089 11028 21050 56014
KAOO 101653Z AUTO 28010KT 10SM FEW025 OVC035 M03/M08 A3039 RMK AO2 SNB1555E22 SLP311 P0000 T10331083
KAOO 101633Z AUTO 28009KT 10SM FEW023 SCT030 OVC036 M03/M09 A3039 RMK AO2 SNB1555E22 P0000 T10331089
KAOO 101553Z AUTO 28011KT 10SM OVC026 M03/M08 A3040 RMK AO2 SNE29 SLP315 P0000 T10331078
KAOO 101501Z AUTO 23007KT 3SM -SN BR BKN019 OVC028 M04/M06 A3041 RMK AO2 P0000 T10441061
KAOO 101453Z AUTO 25007KT 1 1/2SM -SN BR BKN017 BKN023 OVC055 M04/M07 A3041 RMK AO2 SNB03 SLP321 P0000 60000 T10441067 53009
KAOO 101439Z AUTO 25006KT 1 1/2SM -SN BR BKN015 BKN031 OVC055 M05/M07 A3041 RMK AO2 SNB03 P0000 T10501067
KAOO 101432Z AUTO 26006KT 3/4SM -SN BR BKN015 OVC050 M05/M07 A3041 RMK AO2 SNB03 P0000 T10501067
KAOO 101423Z AUTO 26008KT 1/2SM SN FZFG VV015 M04/M07 A3041 RMK AO2 SNB03 P0000 T10441067
KAOO 101413Z AUTO 25008KT 3/4SM -SN BKN021 OVC041 M04/M07 A3041 RMK AO2 SNB03 P0000 T10441072
KAOO 101407Z AUTO 24010KT 2SM -SN BKN025 OVC041 M04/M07 A3041 RMK AO2 SNB03 P0000 T10441072
KAOO 101353Z AUTO 25007KT 8SM FEW023 OVC045 M04/M07 A3040 RMK AO2 SNB06E52 SLP317 P0000 T10441072
KAOO 101253Z AUTO 27006KT 10SM OVC046 M04/M08 A3039 RMK AO2 SNB25E36 SLP313 P0000 T10441078
KAOO 101153Z AUTO 27009KT 10SM BKN040 OVC055 M04/M09 A3039 RMK AO2 SNE39 SLP312 P0000 60000 T10441089 11039 21044 53009
KAOO 101053Z AUTO 27008KT 7SM -SN OVC034 M04/M08 A3037 RMK AO2 SLP309 P0000 T10441078
KAOO 101006Z AUTO 27009KT 8SM -SN SCT023 OVC032 M04/M08 A3037 RMK AO2 P0000 T10441083
KAOO 100953Z AUTO 26009KT 7SM -SN BKN025 OVC032 M04/M08 A3037 RMK AO2 SNB24 SLP305 P0000 T10441078
KAOO 100853Z AUTO 27010G19KT 10SM OVC025 M04/M08 A3036 RMK AO2 SNE04 SLP301 P0000 60000 T10391083 52007
KAOO 100753Z AUTO 27008KT 7SM -SN OVC025 M04/M08 A3035 RMK AO2 SNB0659 SLP298 P0000 T10391083
KAOO 100653Z AUTO 27012KT 10SM OVC025 M04/M08 A3034 RMK AO2 SLP296 T10391083
KAOO 100553Z AUTO 28010KT 10SM OVC025 M04/M09 A3034 RMK AO2 SLP293 T10391089 11033 21044 50004
KAOO 100453Z AUTO 28011KT 10SM BKN026 OVC060 M04/M09 A3034 RMK AO2 SLP295 T10441089 410221044
KAOO 100353Z AUTO 29012KT 10SM BKN026 OVC032 M04/M09 A3033 RMK AO2 SLP291 T10441089
KAOO 100253Z AUTO 30010G20KT 10SM BKN025 M04/M09 A3032 RMK AO2 SLP290 T10391089 58002
KAOO 100153Z AUTO 29008KT 10SM OVC028 M04/M09 A3033 RMK AO2 SLP292 T10391089
KAOO 100053Z AUTO 27010KT 10SM OVC028 M04/M08 A3034 RMK AO2 SLP295 T10391083
KAOO 100017Z AUTO 27009KT 10SM BKN028 BKN037 M04/M08 A3034 RMK AO2 T10391083
KAOO 100001Z AUTO 27011G18KT 10SM SCT028 BKN037 M04/M08 A3033 RMK AO2 T10391083
KAOO 092353Z AUTO 27009KT 10SM BKN028 BKN037 M04/M08 A3033 RMK AO2 SLP291 60000 T10391083 11022 21044 52011
KAOO 092329Z AUTO 27009KT 10SM BKN028 OVC038 M04/M08 A3032 RMK AO2 T10391078
KAOO 092253Z AUTO 25008KT 10SM FEW026 OVC041 M04/M07 A3031 RMK AO2 SNE42 SLP288 P0000 T10441072
KAOO 092203Z AUTO 25009KT 4SM -SN BR BKN031 OVC040 M04/M06 A3030 RMK AO2 P0000 T10391061
KAOO 092153Z AUTO 26009KT 2 1/2SM -SN FEW023 BKN035 OVC042 M04/M07 A3031 RMK AO2 SLP284 P0000 T10391067
KAOO 092140Z AUTO 26009KT 2 1/2SM -SN BR FEW025 BKN031 OVC037 M04/M06 A3030 RMK AO2 P0000 T10391061
KAOO 092129Z AUTO 26010KT 3SM -SN BR FEW020 SCT025 OVC034 M04/M06 A3030 RMK AO2 P0000 T10391061
KAOO 092053Z AUTO 26011KT 2SM -SN BKN025 OVC035 M03/M07 A3029 RMK AO2 SLP279 P0000 60000 T10331067 53012
KAOO 092043Z AUTO 26009KT 1 3/4SM -SN FEW019 BKN025 OVC035 M03/M06 A3029 RMK AO2 P0000 T10331061
KAOO 092034Z AUTO 26011KT 2SM -SN SCT020 OVC027 M03/M07 A3029 RMK AO2 P0000 T10331067
KAOO 091953Z AUTO 26011KT 4SM -SN FEW018 BKN026 OVC036 M03/M07 A3027 RMK AO2 SLP272 P0000 T10281067
KAOO 091920Z AUTO 26007KT 3SM -SN SCT019 BKN025 OVC030 M03/M06 A3027 RMK AO2 P0000 T10331061
KAOO 091902Z AUTO 26010KT 1 3/4SM -SN BKN022 OVC028 M03/M07 A3026 RMK AO2 P0000 T10281067
KAOO 091853Z AUTO 26012KT 3SM -SN OVC024 M03/M07 A3026 RMK AO2 SNB08 SLP268 P0000 T10281072
KAOO 091753Z AUTO 26013KT 9SM OVC023 M03/M08 A3026 RMK AO2 SNB1654E49 SLP266 P0000 60000 T10281078 11028 21044 58003
KAOO 091653Z AUTO 28013G19KT 9SM OVC023 M03/M08 A3026 RMK AO2 SLP268 T10281083
KAOO 091553Z AUTO 29010KT 10SM OVC022 M03/M08 A3027 RMK AO2 SNE06 SLP270 P0000 T10281078
KAOO 091453Z AUTO 27011G19KT 6SM -SN OVC021 M04/M08 A3027 RMK AO2 SNB42 SLP270 P0000 60000 T10391078 53020